Edmore, Michigan
Current Conditions -  °F | °C
As of 9:35 PM on Thursday 20 Nov 2014 (Local Time) from KAMN Reporting Station
Clear Clear  
Wind Chill:   Ceiling: Unl
Heat Index: 12°   Visibility: 10mi
Dew Point:   Wind: 5mph
Humidity: 89%   Direction: 260°W
Pressure: 30.11"   Gusts: NA
Location:  43.41°N, 85.04°W
Report Text: KAMN 210235Z AUTO 26004KT 10SM CLR M11/M13 A3011 RMK AO2 T11131128
Loading
Personal Weather Stations






























Interactive Weather Map New forecast layout! Learn more

10-Day Weather Forecast

Advertisements
Track Severe Weather on mobile